Time;durP1;ratioP1;P1;durP2;ratioP2;P2;SDS_P1;SDS_P2;PMS_P1;PMS_P2;Temp;Humidity;BMP_temperature;BMP_pressure;BME280_temperature;BME280_humidity;BME280_pressure;Samples;Min_cycle;Max_cycle;Signal;HPM_P1;HPM_P2
2021/04/16 00:02:03;;;;;;;15.10;9.57;;;6.20;99.90;;;;;;5087124;28;20160;-70
2021/04/16 00:04:28;;;;;;;18.73;10.77;;;6.20;99.90;;;;;;5086683;28;20195;-70
2021/04/16 00:06:54;;;;;;;16.47;10.03;;;6.30;99.90;;;;;;5067145;28;20213;-70
2021/04/16 00:09:23;;;;;;;14.03;10.00;;;6.30;99.90;;;;;;5087851;28;20201;-70
2021/04/16 00:11:48;;;;;;;16.03;11.13;;;6.30;99.90;;;;;;5087757;28;20201;-70
2021/04/16 00:14:14;;;;;;;12.57;10.63;;;6.10;99.90;;;;;;5087245;28;20164;-70
2021/04/16 00:16:40;;;;;;;13.80;10.37;;;6.00;99.90;;;;;;5084720;28;20179;-70
2021/04/16 00:19:06;;;;;;;11.50;10.30;;;5.90;99.90;;;;;;5086763;28;20172;-70
2021/04/16 00:21:32;;;;;;;11.67;9.90;;;5.80;99.90;;;;;;5087488;28;20156;-70
2021/04/16 00:23:58;;;;;;;11.57;10.10;;;5.80;99.90;;;;;;5087085;28;20172;-70
2021/04/16 00:26:24;;;;;;;10.97;9.77;;;5.80;99.90;;;;;;5084898;28;20255;-71
2021/04/16 00:28:49;;;;;;;13.63;9.07;;;5.70;99.90;;;;;;5087281;28;20169;-70
2021/04/16 00:31:29;;;;;;;12.00;9.23;;;5.70;99.90;;;;;;5065764;28;20208;-70
2021/04/16 00:33:54;;;;;;;10.33;8.67;;;5.70;99.90;;;;;;5066605;28;20165;-70
2021/04/16 00:36:21;;;;;;;15.37;9.10;;;5.70;99.90;;;;;;5063271;28;20171;-70
2021/04/16 00:38:48;;;;;;;10.60;9.27;;;5.60;99.90;;;;;;5067038;28;20182;-71
2021/04/16 00:41:19;;;;;;;12.13;8.57;;;5.70;99.90;;;;;;5066998;28;20157;-71
2021/04/16 00:43:45;;;;;;;11.43;8.43;;;5.70;99.90;;;;;;5066900;28;20442;-71
2021/04/16 00:46:11;;;;;;;12.60;9.27;;;5.70;99.90;;;;;;5064374;28;20296;-71
2021/04/16 00:48:58;;;;;;;12.33;9.27;;;5.70;99.90;;;;;;5066216;28;20188;-70
2021/04/16 00:51:36;;;;;;;13.43;8.80;;;5.70;99.90;;;;;;5066381;28;20184;-71
2021/04/16 00:54:04;;;;;;;12.77;9.23;;;5.60;99.90;;;;;;5066647;28;20153;-70
2021/04/16 00:56:30;;;;;;;10.80;8.90;;;5.50;99.90;;;;;;5064078;28;20168;-72
2021/04/16 00:58:57;;;;;;;15.07;9.90;;;5.50;99.90;;;;;;5066461;28;20249;-71
2021/04/16 01:01:24;;;;;;;9.27;8.30;;;5.40;99.90;;;;;;5065387;28;20186;-70
2021/04/16 01:03:50;;;;;;;14.80;9.30;;;5.40;99.90;;;;;;5066163;28;20244;-72
2021/04/16 01:06:19;;;;;;;10.17;9.07;;;5.40;99.90;;;;;;5063866;28;20160;-71
2021/04/16 01:08:45;;;;;;;10.67;9.57;;;5.40;99.90;;;;;;5066324;28;20165;-70
2021/04/16 01:11:10;;;;;;;10.73;9.37;;;5.40;99.90;;;;;;5066290;28;20267;-71
2021/04/16 01:13:38;;;;;;;14.13;10.07;;;5.40;99.90;;;;;;5066080;28;20153;-71
2021/04/16 01:16:09;;;;;;;14.23;9.47;;;5.40;99.90;;;;;;5062389;28;20161;-71
2021/04/16 01:18:37;;;;;;;16.97;10.43;;;5.40;99.90;;;;;;5065966;28;20172;-70
2021/04/16 01:21:06;;;;;;;13.53;9.33;;;5.40;99.90;;;;;;5065759;28;20168;-71
2021/04/16 01:23:54;;;;;;;12.77;10.00;;;5.40;99.90;;;;;;5064940;28;20157;-70
2021/04/16 01:26:25;;;;;;;11.33;9.13;;;5.40;99.90;;;;;;5062235;28;20173;-71
2021/04/16 01:28:51;;;;;;;13.83;9.80;;;5.40;99.90;;;;;;5065926;28;20176;-71
2021/04/16 01:31:21;;;;;;;13.40;10.37;;;5.40;99.90;;;;;;5082844;28;20218;-70
2021/04/16 01:33:49;;;;;;;16.97;10.53;;;5.40;99.90;;;;;;5067734;28;20535;-69
2021/04/16 01:36:18;;;;;;;11.53;9.67;;;5.40;99.90;;;;;;5083430;28;20156;-70
2021/04/16 01:38:44;;;;;;;11.57;9.77;;;5.40;99.90;;;;;;5086007;28;20611;-70
2021/04/16 01:41:12;;;;;;;14.43;11.20;;;5.40;99.90;;;;;;5086002;28;20213;-70
2021/04/16 01:43:41;;;;;;;15.70;10.10;;;5.40;99.90;;;;;;5085915;28;20156;-70
2021/04/16 01:46:18;;;;;;;15.03;10.53;;;5.20;99.90;;;;;;5064986;28;20208;-70
2021/04/16 01:48:45;;;;;;;13.50;10.70;;;5.10;99.90;;;;;;5085324;28;20171;-69
2021/04/16 01:51:14;;;;;;;17.50;10.20;;;5.00;99.90;;;;;;5085711;28;20236;-70
2021/04/16 01:53:40;;;;;;;16.60;9.43;;;5.00;99.90;;;;;;5085742;28;20156;-71
2021/04/16 01:56:06;;;;;;;11.70;10.20;;;5.00;99.90;;;;;;5083122;28;20156;-70
2021/04/16 01:58:32;;;;;;;10.80;9.27;;;5.10;99.90;;;;;;5085719;28;20168;-70
2021/04/16 02:00:58;;;;;;;16.13;10.07;;;5.10;99.90;;;;;;5085562;28;20699;-72
2021/04/16 02:03:24;;;;;;;21.47;11.47;;;5.10;99.90;;;;;;5085857;28;20160;-70
2021/04/16 02:05:49;;;;;;;17.57;11.10;;;5.10;99.90;;;;;;5064740;28;20244;-70
2021/04/16 02:08:15;;;;;;;12.03;10.80;;;5.10;99.90;;;;;;5085362;28;20164;-70
2021/04/16 02:10:43;;;;;;;13.83;10.40;;;5.00;99.90;;;;;;5067631;28;20179;-71
2021/04/16 02:13:08;;;;;;;14.00;11.23;;;5.00;99.90;;;;;;5085372;28;20156;-71
2021/04/16 02:15:34;;;;;;;16.00;10.50;;;4.90;99.90;;;;;;5065155;28;20160;-71
2021/04/16 02:18:00;;;;;;;15.63;10.37;;;4.80;99.90;;;;;;5085215;28;20560;-70
2021/04/16 02:20:28;;;;;;;17.13;10.57;;;4.90;99.90;;;;;;5085400;28;20267;-70
2021/04/16 02:22:54;;;;;;;16.93;10.87;;;4.90;99.90;;;;;;5085641;28;20156;-71
2021/04/16 02:25:20;;;;;;;13.80;10.33;;;4.80;99.90;;;;;;5082964;28;20217;-71
2021/04/16 02:27:46;;;;;;;14.73;9.90;;;4.70;99.90;;;;;;5089157;28;20702;-70
2021/04/16 02:30:18;;;;;;;11.17;9.67;;;4.60;99.90;;;;;;5071348;28;20227;-70
2021/04/16 02:32:44;;;;;;;15.57;10.70;;;4.60;99.90;;;;;;5071482;28;20167;-70
2021/04/16 02:35:11;;;;;;;11.17;9.70;;;4.50;99.90;;;;;;5087460;28;20168;-70
2021/04/16 02:37:36;;;;;;;12.20;9.67;;;4.40;99.90;;;;;;5088574;28;20175;-70
2021/04/16 02:40:05;;;;;;;18.23;9.57;;;4.40;99.90;;;;;;5089247;28;20232;-70
2021/04/16 02:42:30;;;;;;;10.70;9.13;;;4.30;99.90;;;;;;5089315;28;20179;-70
2021/04/16 02:44:56;;;;;;;9.23;8.20;;;4.30;99.90;;;;;;5089001;28;20203;-70
2021/04/16 02:47:22;;;;;;;12.17;8.50;;;4.30;99.90;;;;;;5086907;28;20168;-70
2021/04/16 02:49:47;;;;;;;10.87;8.67;;;4.30;99.90;;;;;;5088909;28;20176;-70
2021/04/16 02:52:13;;;;;;;13.17;8.67;;;4.30;99.90;;;;;;5089068;28;20175;-70
2021/04/16 02:54:39;;;;;;;9.00;8.10;;;4.30;99.90;;;;;;5088987;28;20175;-70
2021/04/16 02:57:05;;;;;;;13.27;8.53;;;4.40;99.90;;;;;;5086390;28;20171;-70
2021/04/16 02:59:31;;;;;;;11.20;8.27;;;4.40;99.90;;;;;;5088966;28;20268;-72
2021/04/16 03:01:57;;;;;;;9.53;8.20;;;4.40;99.90;;;;;;5088941;28;20164;-71
2021/04/16 03:04:22;;;;;;;9.80;8.10;;;4.30;99.90;;;;;;5088466;28;20191;-70
2021/04/16 03:06:48;;;;;;;11.90;8.33;;;4.30;99.90;;;;;;5086391;28;20182;-70
2021/04/16 03:09:14;;;;;;;12.60;7.93;;;4.20;99.90;;;;;;5088402;28;20224;-71
2021/04/16 03:11:40;;;;;;;9.57;8.03;;;4.20;99.90;;;;;;5088836;28;20238;-71
2021/04/16 03:14:06;;;;;;;10.67;7.27;;;4.10;99.90;;;;;;5088720;28;20188;-72
2021/04/16 03:16:32;;;;;;;9.73;7.67;;;4.20;99.90;;;;;;5086082;28;20156;-72
2021/04/16 03:19:02;;;;;;;8.73;7.83;;;4.10;99.90;;;;;;5087976;28;20161;-70
2021/04/16 03:21:28;;;;;;;8.30;7.50;;;4.20;99.90;;;;;;5088480;28;20164;-71
2021/04/16 03:23:55;;;;;;;8.17;7.33;;;4.20;99.90;;;;;;5088409;28;20156;-73
2021/04/16 03:26:21;;;;;;;9.47;8.50;;;4.20;99.90;;;;;;5085996;28;20171;-71
2021/04/16 03:28:52;;;;;;;9.13;8.23;;;4.20;99.90;;;;;;5087977;28;20172;-70
2021/04/16 03:31:18;;;;;;;11.15;8.05;;;4.20;99.90;;;;;;5087937;28;20441;-72
2021/04/16 03:33:44;;;;;;;10.80;7.97;;;4.20;99.90;;;;;;5088288;28;20219;-72
2021/04/16 03:36:09;;;;;;;12.70;7.47;;;4.30;99.90;;;;;;5085382;28;20164;-70
2021/04/16 03:38:35;;;;;;;7.93;7.23;;;4.20;99.90;;;;;;5087881;28;20167;-71
2021/04/16 03:41:00;;;;;;;9.93;8.17;;;4.20;99.90;;;;;;5087237;28;20414;-72
2021/04/16 03:43:26;;;;;;;11.23;8.43;;;4.40;99.90;;;;;;5088244;28;20180;-73
2021/04/16 03:45:52;;;;;;;11.30;8.00;;;4.40;99.90;;;;;;5085645;28;20195;-70
2021/04/16 03:48:17;;;;;;;8.50;7.00;;;4.30;99.90;;;;;;5087702;28;20673;-70
2021/04/16 03:50:43;;;;;;;7.67;6.90;;;4.30;99.90;;;;;;5087890;28;20196;-70
2021/04/16 03:53:09;;;;;;;12.80;7.37;;;4.20;99.90;;;;;;5087925;28;20243;-70
2021/04/16 03:55:37;;;;;;;9.80;7.07;;;4.20;99.90;;;;;;5085433;28;20164;-72
2021/04/16 03:58:04;;;;;;;8.43;6.73;;;4.00;99.90;;;;;;5069517;28;20222;-72
2021/04/16 04:00:32;;;;;;;7.97;7.07;;;3.90;99.90;;;;;;5087922;28;20156;-72
2021/04/16 04:02:58;;;;;;;10.97;7.00;;;4.00;99.90;;;;;;5087634;28;20186;-72
2021/04/16 04:05:25;;;;;;;12.80;8.60;;;4.00;99.90;;;;;;5084448;28;20604;-72
2021/04/16 04:07:50;;;;;;;9.80;7.67;;;4.10;99.90;;;;;;5087697;28;20334;-72
2021/04/16 04:10:19;;;;;;;9.07;7.97;;;4.10;99.90;;;;;;5087633;28;20247;-72
2021/04/16 04:12:45;;;;;;;9.37;7.53;;;4.10;99.90;;;;;;5087634;28;20195;-71
2021/04/16 04:15:12;;;;;;;12.77;7.93;;;4.10;99.90;;;;;;5067681;28;20187;-72
2021/04/16 04:17:38;;;;;;;11.67;8.30;;;4.10;99.90;;;;;;5086778;28;20652;-72
2021/04/16 04:20:07;;;;;;;9.37;8.40;;;4.20;99.90;;;;;;5086892;28;20172;-72
2021/04/16 04:22:32;;;;;;;11.53;7.63;;;4.10;99.90;;;;;;5087461;28;20247;-72
2021/04/16 04:24:58;;;;;;;8.43;7.50;;;4.00;99.90;;;;;;5086537;28;20219;-72
2021/04/16 04:27:23;;;;;;;12.63;7.87;;;3.80;99.90;;;;;;5085129;28;20168;-72
2021/04/16 04:29:49;;;;;;;15.73;7.80;;;3.70;99.90;;;;;;5069039;28;20208;-72
2021/04/16 04:32:15;;;;;;;19.70;8.27;;;3.60;99.90;;;;;;5087093;28;20176;-73
2021/04/16 04:34:41;;;;;;;19.17;7.80;;;3.50;99.90;;;;;;5086859;28;20247;-73
2021/04/16 04:37:08;;;;;;;20.40;9.10;;;3.60;99.90;;;;;;5084442;28;20164;-71
2021/04/16 04:39:37;;;;;;;15.70;9.13;;;3.60;99.90;;;;;;5086890;28;20199;-73
2021/04/16 04:42:04;;;;;;;15.13;9.67;;;3.60;99.90;;;;;;5086908;28;20192;-72
2021/04/16 04:44:31;;;;;;;9.87;8.93;;;3.60;99.90;;;;;;5086876;28;20192;-72
2021/04/16 04:46:56;;;;;;;13.37;9.93;;;3.60;99.90;;;;;;5066124;28;20199;-71
2021/04/16 04:49:22;;;;;;;13.10;8.77;;;3.60;99.90;;;;;;5085822;28;20176;-72
2021/04/16 04:52:08;;;;;;;11.40;9.87;;;3.70;99.90;;;;;;5086896;28;20189;-71
2021/04/16 04:54:33;;;;;;;16.93;9.80;;;3.60;99.90;;;;;;5086645;28;20168;-72
2021/04/16 04:57:00;;;;;;;16.03;9.30;;;3.70;99.90;;;;;;5083929;28;20614;-71
2021/04/16 04:59:25;;;;;;;18.77;9.13;;;3.70;99.90;;;;;;5086542;28;20176;-72
2021/04/16 05:01:51;;;;;;;15.33;8.80;;;3.80;99.90;;;;;;5086731;28;20211;-72
2021/04/16 05:04:17;;;;;;;10.17;8.80;;;3.80;99.90;;;;;;5086075;28;20212;-72
2021/04/16 05:06:42;;;;;;;16.87;8.87;;;3.90;99.90;;;;;;5083928;28;20197;-72
2021/04/16 05:09:08;;;;;;;14.73;9.03;;;4.20;99.90;;;;;;5086204;28;20156;-71
2021/04/16 05:11:33;;;;;;;12.87;9.83;;;4.10;99.90;;;;;;5086569;28;20160;-72
2021/04/16 05:13:59;;;;;;;18.97;12.63;;;4.10;99.90;;;;;;5085039;28;20406;-71
2021/04/16 05:16:25;;;;;;;13.63;9.80;;;4.30;99.90;;;;;;5083807;28;20914;-72
2021/04/16 05:18:52;;;;;;;19.73;9.03;;;4.00;99.90;;;;;;5086220;28;20195;-72
2021/04/16 05:21:18;;;;;;;14.27;8.57;;;3.70;99.90;;;;;;5085837;28;20168;-74
2021/04/16 05:23:44;;;;;;;13.37;8.93;;;3.80;99.90;;;;;;5068032;28;20170;-72
2021/04/16 05:26:10;;;;;;;14.23;8.87;;;4.00;99.90;;;;;;5083501;28;20191;-74
2021/04/16 05:28:35;;;;;;;12.33;8.80;;;4.00;99.90;;;;;;5086016;28;20254;-73
2021/04/16 05:31:01;;;;;;;11.90;8.63;;;4.00;99.90;;;;;;5085863;28;20239;-74
2021/04/16 05:33:27;;;;;;;30.87;10.20;;;3.80;99.90;;;;;;5086003;28;20167;-74
2021/04/16 05:35:53;;;;;;;17.97;8.50;;;3.60;99.90;;;;;;5083187;28;20629;-71
2021/04/16 05:38:19;;;;;;;14.10;7.53;;;3.60;99.90;;;;;;5085802;28;20171;-72
2021/04/16 05:40:44;;;;;;;23.10;8.97;;;3.70;99.90;;;;;;5086108;28;20217;-72
2021/04/16 05:43:10;;;;;;;15.38;10.15;;;3.80;99.90;;;;;;5084924;28;20919;-73
2021/04/16 05:45:35;;;;;;;19.43;9.23;;;4.10;99.90;;;;;;5065409;28;20720;-73
2021/04/16 05:48:01;;;;;;;16.40;8.50;;;4.20;99.90;;;;;;5085523;28;20597;-72
2021/04/16 05:50:27;;;;;;;20.77;9.47;;;4.30;99.90;;;;;;5085565;28;20172;-72
2021/04/16 05:52:54;;;;;;;15.83;8.00;;;4.00;99.90;;;;;;5086028;28;20193;-71
2021/04/16 05:55:19;;;;;;;11.07;8.93;;;3.90;99.90;;;;;;5083173;28;20544;-73
2021/04/16 05:57:45;;;;;;;18.60;8.23;;;4.00;99.90;;;;;;5085634;28;20152;-72
2021/04/16 06:00:11;;;;;;;30.10;8.60;;;4.00;99.90;;;;;;5084992;28;20168;-72
2021/04/16 06:02:41;;;;;;;19.03;8.17;;;4.10;99.90;;;;;;5085455;28;20198;-72
2021/04/16 06:05:10;;;;;;;10.73;8.00;;;4.20;99.90;;;;;;5083974;28;20275;-71
2021/04/16 06:07:36;;;;;;;12.33;7.70;;;4.20;99.90;;;;;;5084566;28;20172;-71
2021/04/16 06:10:03;;;;;;;14.20;8.43;;;4.20;99.90;;;;;;5085415;28;20524;-72
2021/04/16 06:12:29;;;;;;;17.90;8.73;;;4.20;99.90;;;;;;5085709;28;20164;-72
2021/04/16 06:14:55;;;;;;;19.43;7.77;;;4.20;99.90;;;;;;5085599;28;20239;-72
2021/04/16 06:17:20;;;;;;;15.90;8.50;;;4.40;99.90;;;;;;5083238;28;20167;-72
2021/04/16 06:19:49;;;;;;;14.63;8.50;;;4.40;99.90;;;;;;5085084;28;20176;-72
2021/04/16 06:22:17;;;;;;;14.77;8.77;;;4.50;99.90;;;;;;5085462;28;20174;-73
2021/04/16 06:24:42;;;;;;;15.40;8.17;;;4.60;99.90;;;;;;5085285;28;20199;-72
2021/04/16 06:27:08;;;;;;;16.17;8.37;;;4.70;99.90;;;;;;5082947;28;20160;-72
2021/04/16 06:29:34;;;;;;;17.20;8.07;;;4.80;99.90;;;;;;5085097;28;21176;-71
2021/04/16 06:32:00;;;;;;;15.40;7.83;;;4.90;99.90;;;;;;5085172;28;20171;-72
2021/04/16 06:34:26;;;;;;;11.73;8.17;;;5.00;99.90;;;;;;5085006;28;20172;-72
2021/04/16 06:36:52;;;;;;;14.20;6.90;;;5.10;99.90;;;;;;5082640;28;20164;-72
2021/04/16 06:39:18;;;;;;;9.80;7.03;;;5.20;99.90;;;;;;5085197;28;20156;-72
2021/04/16 06:41:49;;;;;;;15.27;6.97;;;5.20;99.90;;;;;;5085302;28;20518;-73
2021/04/16 06:44:19;;;;;;;13.40;6.77;;;5.20;99.90;;;;;;5084969;28;20252;-73
2021/04/16 06:46:49;;;;;;;12.50;6.87;;;5.20;99.90;;;;;;5082678;28;20243;-72
2021/04/16 06:49:21;;;;;;;9.20;7.07;;;5.30;99.90;;;;;;5084270;28;20280;-71
2021/04/16 06:52:20;;;;;;;13.10;6.43;;;5.40;99.90;;;;;;5085254;28;20160;-73
2021/04/16 06:55:16;;;;;;;16.70;7.30;;;5.40;99.90;;;;;;5084940;28;20247;-72
2021/04/16 06:57:54;;;;;;;14.40;6.97;;;5.60;99.90;;;;;;5084762;28;20167;-71
2021/04/16 07:00:33;;;;;;;11.30;6.63;;;5.60;99.90;;;;;;5084904;28;20160;-71
2021/04/16 07:03:03;;;;;;;7.37;6.67;;;5.60;99.90;;;;;;5084736;28;20178;-73
2021/04/16 07:05:37;;;;;;;7.20;6.50;;;5.80;99.90;;;;;;5081832;28;20499;-73
2021/04/16 07:08:06;;;;;;;8.67;6.30;;;6.00;99.90;;;;;;5084731;28;20554;-73
2021/04/16 07:10:37;;;;;;;7.27;5.97;;;6.20;99.90;;;;;;5084834;28;20164;-73
2021/04/16 07:13:05;;;;;;;12.90;5.57;;;6.10;99.90;;;;;;5087042;28;20183;-73
2021/04/16 07:15:36;;;;;;;11.40;6.07;;;6.10;99.90;;;;;;5067769;28;20168;-72
2021/04/16 07:18:04;;;;;;;7.73;4.70;;;6.30;99.90;;;;;;5070111;28;20692;-72
2021/04/16 07:20:30;;;;;;;11.57;5.03;;;6.40;99.90;;;;;;5087000;28;20278;-72
2021/04/16 07:22:56;;;;;;;10.63;5.30;;;6.50;99.90;;;;;;5087745;28;20187;-73
2021/04/16 07:25:43;;;;;;;10.30;5.90;;;6.60;99.90;;;;;;5085548;28;20515;-73
2021/04/16 07:28:13;;;;;;;6.33;5.13;;;6.60;99.90;;;;;;5087612;28;20172;-71
2021/04/16 07:30:49;;;;;;;13.30;4.90;;;6.40;99.90;;;;;;5088114;28;20208;-73
2021/04/16 07:33:23;;;;;;;6.97;4.77;;;6.60;99.90;;;;;;5087805;28;20155;-72
2021/04/16 07:35:50;;;;;;;11.97;5.90;;;6.60;99.90;;;;;;5067151;28;20183;-72
2021/04/16 07:38:28;;;;;;;11.73;5.47;;;6.50;99.90;;;;;;5087734;28;20172;-72
2021/04/16 07:41:16;;;;;;;15.00;5.30;;;6.60;99.90;;;;;;5070030;28;20574;-72
2021/04/16 07:43:47;;;;;;;12.30;4.83;;;6.60;99.90;;;;;;5087756;28;20198;-71
2021/04/16 07:46:28;;;;;;;10.83;4.33;;;6.70;99.90;;;;;;5085118;28;20199;-73
2021/04/16 07:49:09;;;;;;;7.53;4.93;;;7.00;99.90;;;;;;5087545;28;20164;-72
2021/04/16 07:51:35;;;;;;;10.60;4.73;;;7.30;99.90;;;;;;5069863;28;20171;-72
2021/04/16 07:54:20;;;;;;;9.00;4.70;;;7.30;99.90;;;;;;5087563;28;20585;-71
2021/04/16 07:56:46;;;;;;;14.77;6.13;;;7.20;99.90;;;;;;5084620;28;20170;-73
2021/04/16 07:59:15;;;;;;;7.77;4.67;;;7.10;99.90;;;;;;5087204;28;20168;-72
2021/04/16 08:01:51;;;;;;;7.50;4.73;;;7.10;99.90;;;;;;5086781;28;20167;-72
2021/04/16 08:04:33;;;;;;;10.03;4.80;;;7.30;99.90;;;;;;5086800;28;20238;-72
2021/04/16 08:07:18;;;;;;;6.03;4.57;;;7.40;99.90;;;;;;5084842;28;20164;-70
2021/04/16 08:09:43;;;;;;;11.97;4.60;;;7.60;99.90;;;;;;5087376;28;20168;-71
2021/04/16 08:12:15;;;;;;;6.23;4.20;;;7.80;99.90;;;;;;5087608;28;20163;-70
2021/04/16 08:14:43;;;;;;;9.80;4.77;;;8.10;99.90;;;;;;5087109;28;20168;-69
2021/04/16 08:17:29;;;;;;;7.23;4.17;;;8.30;99.90;;;;;;5085478;28;20175;-69
2021/04/16 08:20:15;;;;;;;6.67;4.40;;;8.30;99.90;;;;;;5068553;28;20271;-69
2021/04/16 08:22:42;;;;;;;12.13;4.73;;;8.20;99.90;;;;;;5087470;28;20182;-71
2021/04/16 08:25:17;;;;;;;7.67;4.23;;;8.20;99.90;;;;;;5085127;28;20191;-72
2021/04/16 08:28:00;;;;;;;8.07;4.93;;;8.30;99.90;;;;;;5087133;28;20160;-71
2021/04/16 08:30:44;;;;;;;8.17;4.73;;;8.40;99.90;;;;;;5068846;28;20295;-73
2021/04/16 08:33:49;;;;;;;23.47;6.10;;;8.40;99.90;;;;;;5068664;28;20164;-72
2021/04/16 08:36:31;;;;;;;7.80;4.30;;;8.50;99.90;;;;;;5083078;28;20184;-72
2021/04/16 08:39:05;;;;;;;10.40;4.80;;;8.60;99.90;;;;;;5085904;28;20224;-72
2021/04/16 08:41:36;;;;;;;12.50;6.60;;;8.70;99.90;;;;;;5086836;28;20194;-72
2021/04/16 08:44:07;;;;;;;6.93;5.20;;;8.90;99.90;;;;;;5086772;28;20163;-69
2021/04/16 08:46:37;;;;;;;8.27;4.60;;;9.10;99.90;;;;;;5084328;28;20164;-69
2021/04/16 08:49:16;;;;;;;9.20;4.73;;;9.10;99.90;;;;;;5086223;28;20191;-69
2021/04/16 08:51:46;;;;;;;8.47;4.83;;;9.30;99.90;;;;;;5086583;28;20210;-70
2021/04/16 08:54:23;;;;;;;5.30;4.40;;;9.50;99.90;;;;;;5086742;28;20164;-71
2021/04/16 08:56:55;;;;;;;8.70;4.10;;;9.30;99.90;;;;;;5065917;28;20231;-71
2021/04/16 08:59:22;;;;;;;6.00;4.50;;;9.10;99.90;;;;;;5068608;28;20170;-70
2021/04/16 09:01:56;;;;;;;9.83;4.77;;;9.00;99.90;;;;;;5068596;28;20168;-72
2021/04/16 09:04:44;;;;;;;7.57;3.80;;;9.10;99.90;;;;;;5086019;28;20164;-70
2021/04/16 09:07:30;;;;;;;6.73;4.60;;;9.20;99.90;;;;;;5065675;28;20159;-72
2021/04/16 09:09:56;;;;;;;7.47;4.53;;;9.30;99.90;;;;;;5085924;28;20247;-72
2021/04/16 09:12:40;;;;;;;7.83;4.67;;;9.40;99.90;;;;;;5086283;28;20168;-71
2021/04/16 09:15:32;;;;;;;6.70;4.90;;;9.80;99.90;;;;;;5084726;28;20171;-71
2021/04/16 09:17:58;;;;;;;5.73;4.30;;;9.90;99.90;;;;;;5085598;28;20179;-71
2021/04/16 09:20:34;;;;;;;5.23;3.73;;;10.00;99.90;;;;;;5085761;28;20176;-71
2021/04/16 09:23:01;;;;;;;6.23;4.40;;;9.70;99.90;;;;;;5085816;28;20172;-71
2021/04/16 09:25:38;;;;;;;8.20;3.57;;;9.60;99.90;;;;;;5081966;28;20200;-71
2021/04/16 09:28:22;;;;;;;4.90;3.80;;;9.60;99.90;;;;;;5085337;28;20163;-71
2021/04/16 09:30:57;;;;;;;7.67;3.97;;;9.70;99.90;;;;;;5085695;28;20214;-71
2021/04/16 09:33:44;;;;;;;7.47;4.33;;;9.90;99.90;;;;;;5086017;28;20163;-72
2021/04/16 09:36:38;;;;;;;8.43;3.83;;;10.30;99.90;;;;;;5082068;28;20208;-72
2021/04/16 09:39:15;;;;;;;6.60;4.07;;;10.50;99.90;;;;;;5084805;28;20187;-71
2021/04/16 09:41:46;;;;;;;4.00;3.47;;;10.80;99.90;;;;;;5085679;28;20221;-71
2021/04/16 09:44:42;;;;;;;10.87;4.03;;;10.90;99.90;;;;;;5067578;28;20176;-71
2021/04/16 09:47:08;;;;;;;5.70;3.77;;;11.20;99.90;;;;;;5074531;28;20171;-71
2021/04/16 09:49:40;;;;;;;6.00;3.23;;;11.30;99.90;;;;;;5084199;28;20168;-71
2021/04/16 09:52:31;;;;;;;4.20;3.80;;;11.50;99.90;;;;;;5066823;28;20183;-72
2021/04/16 09:54:57;;;;;;;5.87;3.63;;;11.70;99.90;;;;;;5085043;28;20168;-71
2021/04/16 09:57:27;;;;;;;7.40;3.40;;;11.90;99.90;;;;;;5083018;28;20178;-72
2021/04/16 09:59:54;;;;;;;3.90;3.47;;;11.80;99.90;;;;;;5084941;28;20180;-71
2021/04/16 10:02:34;;;;;;;3.83;3.30;;;11.90;99.90;;;;;;5085703;28;20155;-71
2021/04/16 10:05:05;;;;;;;5.30;3.50;;;12.20;99.90;;;;;;5084166;28;20192;-71
2021/04/16 10:07:42;;;;;;;4.73;3.13;;;12.60;99.90;;;;;;5066270;28;20218;-71
2021/04/16 10:10:16;;;;;;;6.43;2.90;;;12.80;99.90;;;;;;5066774;28;20172;-71
2021/04/16 10:12:42;;;;;;;2.92;2.63;;;13.00;99.90;;;;;;5085145;28;20174;-71
2021/04/16 10:15:25;;;;;;;3.17;2.55;;;13.30;99.90;;;;;;5082783;28;20160;-71
2021/04/16 10:18:01;;;;;;;7.78;3.17;;;13.70;99.90;;;;;;5084671;28;20171;-71
2021/04/16 10:20:29;;;;;;;4.80;2.78;;;14.20;99.90;;;;;;5085062;28;20231;-71
2021/04/16 10:23:02;;;;;;;4.80;2.95;;;14.50;99.90;;;;;;5085405;28;20171;-71
2021/04/16 10:35:09;;;;;;;3.28;2.53;;;15.20;99.90;;;;;;5085226;28;20175;-71
2021/04/16 12:39:34;;;;;;;2.58;2.38;;;18.30;99.90;;;;;;5087160;28;20278;-72
2021/04/16 12:42:02;;;;;;;4.88;3.55;;;18.60;99.90;;;;;;5086838;28;20160;-72
2021/04/16 12:44:37;;;;;;;4.18;3.53;;;18.50;99.90;;;;;;5086581;28;20199;-72
2021/04/16 12:47:06;;;;;;;3.75;2.70;;;17.90;98.90;;;;;;5084246;28;20210;-72
2021/04/16 12:49:32;;;;;;;2.83;2.30;;;17.50;99.90;;;;;;5086481;28;20163;-72
2021/04/16 12:51:58;;;;;;;5.05;2.78;;;17.50;99.90;;;;;;5086342;28;20168;-72
2021/04/16 12:54:23;;;;;;;6.35;2.97;;;17.80;99.90;;;;;;5086822;28;20567;-72
2021/04/16 12:56:49;;;;;;;10.30;2.83;;;17.80;99.90;;;;;;5083809;28;20164;-73
2021/04/16 12:59:18;;;;;;;8.43;3.10;;;17.80;99.90;;;;;;5067982;28;20168;-72
2021/04/16 13:01:45;;;;;;;6.85;2.83;;;18.00;99.90;;;;;;5086498;28;20214;-72
2021/04/16 13:04:12;;;;;;;3.83;3.17;;;18.00;99.90;;;;;;5085911;28;20194;-72
2021/04/16 13:06:40;;;;;;;4.38;2.60;;;18.10;98.10;;;;;;5065648;28;20617;-73
2021/04/16 13:09:09;;;;;;;10.55;2.70;;;17.90;97.90;;;;;;5085925;28;20243;-73
2021/04/16 13:11:35;;;;;;;4.50;2.78;;;17.50;99.90;;;;;;5086220;28;20337;-72
2021/04/16 13:14:01;;;;;;;3.20;2.42;;;17.80;99.90;;;;;;5086127;28;20175;-72
2021/04/16 13:16:27;;;;;;;4.15;2.78;;;17.70;99.20;;;;;;5065402;28;20163;-73
2021/04/16 13:18:56;;;;;;;2.83;2.35;;;17.80;99.20;;;;;;5086520;28;20168;-72
2021/04/16 13:21:25;;;;;;;7.93;2.50;;;17.90;99.90;;;;;;5085826;28;20179;-72
2021/04/16 13:23:51;;;;;;;9.57;2.80;;;17.90;99.90;;;;;;5068173;28;20222;-72
2021/04/16 13:26:17;;;;;;;4.10;2.50;;;17.90;99.90;;;;;;5083358;28;20196;-73
2021/04/16 13:28:43;;;;;;;3.85;2.78;;;18.10;99.90;;;;;;5067787;28;20164;-72
2021/04/16 13:31:09;;;;;;;5.90;3.00;;;18.30;99.30;;;;;;5085448;28;20554;-72
2021/04/16 13:33:41;;;;;;;2.53;2.33;;;18.30;98.30;;;;;;5085900;28;20152;-72
2021/04/16 13:36:11;;;;;;;5.80;3.08;;;18.20;98.50;;;;;;5082739;28;20167;-73
2021/04/16 13:38:37;;;;;;;6.25;2.60;;;18.20;98.10;;;;;;5085682;28;20168;-72
2021/04/16 13:41:03;;;;;;;5.72;2.60;;;17.50;97.90;;;;;;5067635;28;20164;-72
2021/04/16 13:43:30;;;;;;;3.72;2.63;;;17.20;99.60;;;;;;5085950;28;20710;-73
2021/04/16 13:45:56;;;;;;;6.43;2.97;;;17.00;99.10;;;;;;5082578;28;20202;-73
2021/04/16 13:48:22;;;;;;;5.88;2.70;;;17.00;97.90;;;;;;5085714;28;20156;-72
2021/04/16 13:50:49;;;;;;;6.05;3.35;;;16.90;99.80;;;;;;5085200;28;20196;-72
2021/04/16 13:53:15;;;;;;;4.07;2.88;;;17.10;99.90;;;;;;5085591;28;20254;-72
2021/04/16 13:55:41;;;;;;;4.05;2.88;;;17.00;97.90;;;;;;5083013;28;20187;-73
2021/04/16 13:58:07;;;;;;;6.07;4.05;;;16.60;98.50;;;;;;5084665;28;20234;-73
2021/04/16 14:00:36;;;;;;;7.82;4.50;;;16.50;99.90;;;;;;5084845;28;20172;-72
2021/04/16 14:03:14;;;;;;;5.82;2.88;;;16.40;99.30;;;;;;5085468;28;20160;-71
2021/04/16 14:05:48;;;;;;;2.90;2.60;;;16.40;99.90;;;;;;5082641;28;20203;-71
2021/04/16 14:08:23;;;;;;;3.42;2.60;;;16.50;99.90;;;;;;5084854;28;20181;-72
2021/04/16 14:10:49;;;;;;;3.83;3.20;;;16.80;99.90;;;;;;5085300;28;20175;-72
2021/04/16 14:13:14;;;;;;;3.38;2.60;;;16.90;99.90;;;;;;5085362;28;20164;-72
2021/04/16 14:15:40;;;;;;;3.33;2.70;;;17.10;99.90;;;;;;5082957;28;20164;-72
2021/04/16 14:18:05;;;;;;;5.55;3.03;;;17.30;98.40;;;;;;5085055;28;20157;-72
2021/04/16 14:20:39;;;;;;;3.87;3.07;;;17.10;98.70;;;;;;5084776;28;20815;-72
2021/04/16 14:23:09;;;;;;;3.60;3.05;;;17.00;99.10;;;;;;5088163;28;20167;-73
2021/04/16 14:25:37;;;;;;;3.83;2.83;;;16.70;99.90;;;;;;5086837;28;20187;-72
2021/04/16 14:28:05;;;;;;;7.15;3.10;;;16.80;99.90;;;;;;5089212;28;20167;-72
2021/04/16 14:30:34;;;;;;;5.75;2.50;;;16.90;99.90;;;;;;5088862;28;20234;-72
2021/04/16 14:33:02;;;;;;;4.07;2.97;;;16.80;99.90;;;;;;5089200;28;20160;-72
2021/04/16 14:35:29;;;;;;;4.78;2.70;;;16.70;99.90;;;;;;5085986;28;20369;-72
2021/04/16 14:37:55;;;;;;;7.55;3.15;;;16.70;99.90;;;;;;5088959;28;20637;-72
2021/04/16 14:40:22;;;;;;;5.57;3.10;;;16.90;99.90;;;;;;5089032;28;20176;-73
2021/04/16 14:42:48;;;;;;;3.40;2.63;;;16.90;99.90;;;;;;5089316;28;20249;-73
2021/04/16 14:45:21;;;;;;;6.72;2.90;;;17.00;99.90;;;;;;5086427;28;20621;-73
2021/04/16 14:47:47;;;;;;;6.68;2.67;;;17.10;99.90;;;;;;5089284;28;20194;-72
2021/04/16 14:50:15;;;;;;;6.10;3.40;;;17.30;99.90;;;;;;5070386;28;20164;-73
2021/04/16 14:52:41;;;;;;;5.93;3.10;;;17.60;99.00;;;;;;5089021;28;20558;-73
2021/04/16 14:55:12;;;;;;;6.20;3.50;;;17.40;98.00;;;;;;5087570;28;20171;-73
2021/04/16 14:57:39;;;;;;;8.05;3.92;;;17.20;97.40;;;;;;5087549;28;20398;-72
2021/04/16 15:00:10;;;;;;;6.13;3.10;;;17.00;97.70;;;;;;5088318;28;20648;-71
2021/04/16 15:02:35;;;;;;;4.82;2.90;;;16.90;97.20;;;;;;5088896;28;20182;-72
2021/04/16 15:05:01;;;;;;;7.72;3.03;;;17.00;97.20;;;;;;5087696;28;20192;-72
2021/04/16 15:07:31;;;;;;;4.82;3.10;;;17.10;99.60;;;;;;5087205;28;20161;-73
2021/04/16 15:10:05;;;;;;;6.97;3.00;;;17.40;99.20;;;;;;5088308;28;20182;-72
2021/04/16 15:12:33;;;;;;;4.68;2.95;;;17.80;99.90;;;;;;5088602;28;20673;-72